sensor_id;sensor_type;location;lat;lon;timestamp;temperature;humidity
19908;DHT22;10116;53.112;7.356;2022-12-18T00:01:04;22.50;1.00
19908;DHT22;10116;53.112;7.356;2022-12-18T00:03:35;22.50;1.00
19908;DHT22;10116;53.112;7.356;2022-12-18T00:06:01;22.50;1.00
19908;DHT22;10116;53.112;7.356;2022-12-18T00:08:27;22.40;1.00
19908;DHT22;10116;53.112;7.356;2022-12-18T00:10:53;22.50;1.00
19908;DHT22;10116;53.112;7.356;2022-12-18T00:13:19;22.40;1.00
19908;DHT22;10116;53.112;7.356;2022-12-18T00:15:44;22.50;1.00
19908;DHT22;10116;53.112;7.356;2022-12-18T00:18:10;22.50;1.00
19908;DHT22;10116;53.112;7.356;2022-12-18T00:20:39;22.50;1.00
19908;DHT22;10116;53.112;7.356;2022-12-18T00:23:06;22.50;1.00
19908;DHT22;10116;53.112;7.356;2022-12-18T00:25:34;22.40;1.00
19908;DHT22;10116;53.112;7.356;2022-12-18T00:28:00;22.50;1.00
19908;DHT22;10116;53.112;7.356;2022-12-18T00:30:26;22.50;1.00
19908;DHT22;10116;53.112;7.356;2022-12-18T00:32:51;22.50;1.00
19908;DHT22;10116;53.112;7.356;2022-12-18T00:35:17;22.50;1.00
19908;DHT22;10116;53.112;7.356;2022-12-18T00:37:43;22.50;1.00
19908;DHT22;10116;53.112;7.356;2022-12-18T00:40:09;22.50;1.00
19908;DHT22;10116;53.112;7.356;2022-12-18T00:42:38;22.50;1.00
19908;DHT22;10116;53.112;7.356;2022-12-18T00:45:29;22.40;1.00
19908;DHT22;10116;53.112;7.356;2022-12-18T00:47:55;22.40;1.00
19908;DHT22;10116;53.112;7.356;2022-12-18T00:50:23;22.40;1.00
19908;DHT22;10116;53.112;7.356;2022-12-18T00:52:48;22.40;1.00
19908;DHT22;10116;53.112;7.356;2022-12-18T00:55:14;22.40;1.00
19908;DHT22;10116;53.112;7.356;2022-12-18T00:57:40;22.40;1.00
19908;DHT22;10116;53.112;7.356;2022-12-18T01:00:08;22.40;1.00
19908;DHT22;10116;53.112;7.356;2022-12-18T01:02:34;22.40;1.00
19908;DHT22;10116;53.112;7.356;2022-12-18T01:05:00;22.40;1.00
19908;DHT22;10116;53.112;7.356;2022-12-18T01:07:26;22.40;1.00
19908;DHT22;10116;53.112;7.356;2022-12-18T01:09:51;22.40;1.00
19908;DHT22;10116;53.112;7.356;2022-12-18T01:12:17;22.40;1.00
19908;DHT22;10116;53.112;7.356;2022-12-18T01:14:43;22.40;1.00
19908;DHT22;10116;53.112;7.356;2022-12-18T01:17:08;22.40;1.00
19908;DHT22;10116;53.112;7.356;2022-12-18T01:19:34;22.40;1.00
19908;DHT22;10116;53.112;7.356;2022-12-18T01:21:59;22.40;1.00
19908;DHT22;10116;53.112;7.356;2022-12-18T01:24:25;22.40;1.00
19908;DHT22;10116;53.112;7.356;2022-12-18T01:26:51;22.40;1.00
19908;DHT22;10116;53.112;7.356;2022-12-18T01:29:16;22.40;1.00
19908;DHT22;10116;53.112;7.356;2022-12-18T01:31:42;22.40;1.00
19908;DHT22;10116;53.112;7.356;2022-12-18T01:34:08;22.40;1.00
19908;DHT22;10116;53.112;7.356;2022-12-18T01:36:36;22.30;1.00
19908;DHT22;10116;53.112;7.356;2022-12-18T01:39:05;22.30;1.00
19908;DHT22;10116;53.112;7.356;2022-12-18T01:41:33;22.30;1.00
19908;DHT22;10116;53.112;7.356;2022-12-18T01:45:00;22.30;1.00
19908;DHT22;10116;53.112;7.356;2022-12-18T01:47:48;22.30;1.00
19908;DHT22;10116;53.112;7.356;2022-12-18T01:52:53;22.30;1.00
19908;DHT22;10116;53.112;7.356;2022-12-18T01:55:24;22.30;1.00
19908;DHT22;10116;53.112;7.356;2022-12-18T01:57:52;22.20;1.00
19908;DHT22;10116;53.112;7.356;2022-12-18T02:00:21;22.20;1.00
19908;DHT22;10116;53.112;7.356;2022-12-18T02:02:47;22.30;1.00
19908;DHT22;10116;53.112;7.356;2022-12-18T02:05:18;22.30;1.00
19908;DHT22;10116;53.112;7.356;2022-12-18T02:13:28;22.30;1.00
19908;DHT22;10116;53.112;7.356;2022-12-18T02:16:09;22.30;1.00
19908;DHT22;10116;53.112;7.356;2022-12-18T02:18:41;22.30;1.00
19908;DHT22;10116;53.112;7.356;2022-12-18T02:21:31;22.30;1.00
19908;DHT22;10116;53.112;7.356;2022-12-18T02:24:22;22.30;1.00
19908;DHT22;10116;53.112;7.356;2022-12-18T02:26:55;22.30;1.00
19908;DHT22;10116;53.112;7.356;2022-12-18T02:29:24;22.30;1.00
19908;DHT22;10116;53.112;7.356;2022-12-18T02:31:57;22.30;1.00
19908;DHT22;10116;53.112;7.356;2022-12-18T02:34:26;22.30;1.00
19908;DHT22;10116;53.112;7.356;2022-12-18T02:36:54;22.20;1.00
19908;DHT22;10116;53.112;7.356;2022-12-18T02:39:22;22.20;1.00
19908;DHT22;10116;53.112;7.356;2022-12-18T02:41:49;22.20;1.00
19908;DHT22;10116;53.112;7.356;2022-12-18T02:44:15;22.20;1.00
19908;DHT22;10116;53.112;7.356;2022-12-18T02:46:46;22.20;1.00
19908;DHT22;10116;53.112;7.356;2022-12-18T02:52:05;22.20;1.00
19908;DHT22;10116;53.112;7.356;2022-12-18T02:57:23;22.20;1.00
19908;DHT22;10116;53.112;7.356;2022-12-18T02:59:56;22.20;1.00
19908;DHT22;10116;53.112;7.356;2022-12-18T03:05:30;22.20;1.00
19908;DHT22;10116;53.112;7.356;2022-12-18T03:07:58;22.20;1.00
19908;DHT22;10116;53.112;7.356;2022-12-18T03:10:32;22.20;1.00
19908;DHT22;10116;53.112;7.356;2022-12-18T03:13:06;22.20;1.00
19908;DHT22;10116;53.112;7.356;2022-12-18T03:15:37;22.20;1.00
19908;DHT22;10116;53.112;7.356;2022-12-18T03:18:22;22.20;1.00
19908;DHT22;10116;53.112;7.356;2022-12-18T03:20:49;22.20;1.00
19908;DHT22;10116;53.112;7.356;2022-12-18T03:23:20;22.20;1.00
19908;DHT22;10116;53.112;7.356;2022-12-18T03:25:47;22.20;1.00
19908;DHT22;10116;53.112;7.356;2022-12-18T03:28:20;22.20;1.00
19908;DHT22;10116;53.112;7.356;2022-12-18T03:30:49;22.20;1.00
19908;DHT22;10116;53.112;7.356;2022-12-18T03:33:25;22.20;1.00
19908;DHT22;10116;53.112;7.356;2022-12-18T03:35:52;22.20;1.00
19908;DHT22;10116;53.112;7.356;2022-12-18T03:38:18;22.20;1.00
19908;DHT22;10116;53.112;7.356;2022-12-18T03:43:51;22.20;1.00
19908;DHT22;10116;53.112;7.356;2022-12-18T03:46:32;22.20;1.00
19908;DHT22;10116;53.112;7.356;2022-12-18T03:49:11;22.20;1.00
19908;DHT22;10116;53.112;7.356;2022-12-18T03:51:58;22.20;1.00
19908;DHT22;10116;53.112;7.356;2022-12-18T03:54:26;22.20;1.00
19908;DHT22;10116;53.112;7.356;2022-12-18T03:57:01;22.20;1.00
19908;DHT22;10116;53.112;7.356;2022-12-18T03:59:29;22.20;1.00
19908;DHT22;10116;53.112;7.356;2022-12-18T04:01:57;22.20;1.00
19908;DHT22;10116;53.112;7.356;2022-12-18T04:04:24;22.20;1.00
19908;DHT22;10116;53.112;7.356;2022-12-18T04:06:51;22.20;1.00
19908;DHT22;10116;53.112;7.356;2022-12-18T04:09:18;22.20;1.00
19908;DHT22;10116;53.112;7.356;2022-12-18T04:11:46;22.20;1.00
19908;DHT22;10116;53.112;7.356;2022-12-18T04:14:12;22.20;1.00
19908;DHT22;10116;53.112;7.356;2022-12-18T04:16:37;22.20;1.00
19908;DHT22;10116;53.112;7.356;2022-12-18T04:19:04;22.20;1.00
19908;DHT22;10116;53.112;7.356;2022-12-18T04:21:29;22.20;1.00
19908;DHT22;10116;53.112;7.356;2022-12-18T04:23:55;22.20;1.00
19908;DHT22;10116;53.112;7.356;2022-12-18T04:26:20;22.20;1.00
19908;DHT22;10116;53.112;7.356;2022-12-18T04:28:46;22.30;1.00
19908;DHT22;10116;53.112;7.356;2022-12-18T04:31:12;22.30;1.00
19908;DHT22;10116;53.112;7.356;2022-12-18T04:33:38;22.40;1.00
19908;DHT22;10116;53.112;7.356;2022-12-18T04:36:04;22.40;1.00
19908;DHT22;10116;53.112;7.356;2022-12-18T04:38:30;22.40;1.00
19908;DHT22;10116;53.112;7.356;2022-12-18T04:40:55;22.50;1.00
19908;DHT22;10116;53.112;7.356;2022-12-18T04:43:21;22.50;1.00
19908;DHT22;10116;53.112;7.356;2022-12-18T04:45:46;22.50;1.00
19908;DHT22;10116;53.112;7.356;2022-12-18T04:48:12;22.60;1.00
19908;DHT22;10116;53.112;7.356;2022-12-18T04:50:38;22.60;1.00
19908;DHT22;10116;53.112;7.356;2022-12-18T04:53:03;22.60;1.00
19908;DHT22;10116;53.112;7.356;2022-12-18T04:55:29;22.60;1.00
19908;DHT22;10116;53.112;7.356;2022-12-18T04:57:55;22.60;1.00
19908;DHT22;10116;53.112;7.356;2022-12-18T05:00:21;22.50;1.00
19908;DHT22;10116;53.112;7.356;2022-12-18T05:02:46;22.60;1.00
19908;DHT22;10116;53.112;7.356;2022-12-18T05:05:12;22.60;1.00
19908;DHT22;10116;53.112;7.356;2022-12-18T05:07:37;22.60;1.00
19908;DHT22;10116;53.112;7.356;2022-12-18T05:10:07;22.60;1.00
19908;DHT22;10116;53.112;7.356;2022-12-18T05:12:32;22.60;1.00
19908;DHT22;10116;53.112;7.356;2022-12-18T05:14:58;22.60;1.00
19908;DHT22;10116;53.112;7.356;2022-12-18T05:17:24;22.60;1.00
19908;DHT22;10116;53.112;7.356;2022-12-18T05:19:49;22.60;1.00
19908;DHT22;10116;53.112;7.356;2022-12-18T05:22:15;22.60;1.00
19908;DHT22;10116;53.112;7.356;2022-12-18T05:24:40;22.60;1.00
19908;DHT22;10116;53.112;7.356;2022-12-18T05:27:06;22.60;1.00
19908;DHT22;10116;53.112;7.356;2022-12-18T05:29:31;22.70;1.00
19908;DHT22;10116;53.112;7.356;2022-12-18T05:31:57;22.70;1.00
19908;DHT22;10116;53.112;7.356;2022-12-18T05:34:22;22.70;1.00
19908;DHT22;10116;53.112;7.356;2022-12-18T05:36:48;22.70;1.00
19908;DHT22;10116;53.112;7.356;2022-12-18T05:39:14;22.70;1.00
19908;DHT22;10116;53.112;7.356;2022-12-18T05:41:39;22.70;1.00
19908;DHT22;10116;53.112;7.356;2022-12-18T05:44:05;22.70;1.00
19908;DHT22;10116;53.112;7.356;2022-12-18T05:46:31;22.70;1.00
19908;DHT22;10116;53.112;7.356;2022-12-18T05:48:59;22.80;1.00
19908;DHT22;10116;53.112;7.356;2022-12-18T05:51:26;22.70;1.00
19908;DHT22;10116;53.112;7.356;2022-12-18T05:53:51;22.70;1.00
19908;DHT22;10116;53.112;7.356;2022-12-18T05:56:21;22.80;1.00
19908;DHT22;10116;53.112;7.356;2022-12-18T05:58:47;22.70;1.00
19908;DHT22;10116;53.112;7.356;2022-12-18T06:01:19;22.70;1.00
19908;DHT22;10116;53.112;7.356;2022-12-18T06:03:45;22.70;1.00
19908;DHT22;10116;53.112;7.356;2022-12-18T06:06:20;22.70;1.00
19908;DHT22;10116;53.112;7.356;2022-12-18T06:08:46;22.70;1.00
19908;DHT22;10116;53.112;7.356;2022-12-18T06:11:12;22.70;1.00
19908;DHT22;10116;53.112;7.356;2022-12-18T06:13:38;22.70;1.00
19908;DHT22;10116;53.112;7.356;2022-12-18T06:16:05;22.70;1.00
19908;DHT22;10116;53.112;7.356;2022-12-18T06:18:31;22.70;1.00
19908;DHT22;10116;53.112;7.356;2022-12-18T06:20:58;22.70;1.00
19908;DHT22;10116;53.112;7.356;2022-12-18T06:23:24;22.60;1.00
19908;DHT22;10116;53.112;7.356;2022-12-18T06:25:50;22.70;1.00
19908;DHT22;10116;53.112;7.356;2022-12-18T06:28:16;22.70;1.00
19908;DHT22;10116;53.112;7.356;2022-12-18T06:30:45;22.60;1.00
19908;DHT22;10116;53.112;7.356;2022-12-18T06:33:11;22.60;1.00
19908;DHT22;10116;53.112;7.356;2022-12-18T06:35:37;22.60;1.00
19908;DHT22;10116;53.112;7.356;2022-12-18T06:38:03;22.70;1.00
19908;DHT22;10116;53.112;7.356;2022-12-18T06:40:29;22.70;1.00
19908;DHT22;10116;53.112;7.356;2022-12-18T06:42:54;22.70;1.00
19908;DHT22;10116;53.112;7.356;2022-12-18T06:45:20;22.70;1.00
19908;DHT22;10116;53.112;7.356;2022-12-18T06:47:45;22.80;1.00
19908;DHT22;10116;53.112;7.356;2022-12-18T06:50:12;22.80;1.00
19908;DHT22;10116;53.112;7.356;2022-12-18T06:52:38;22.80;1.00
19908;DHT22;10116;53.112;7.356;2022-12-18T06:55:09;22.80;1.00
19908;DHT22;10116;53.112;7.356;2022-12-18T06:57:35;22.80;1.00
19908;DHT22;10116;53.112;7.356;2022-12-18T07:00:00;22.80;1.00
19908;DHT22;10116;53.112;7.356;2022-12-18T07:02:26;22.80;1.00
19908;DHT22;10116;53.112;7.356;2022-12-18T07:04:51;22.80;1.00
19908;DHT22;10116;53.112;7.356;2022-12-18T07:07:17;22.80;1.00
19908;DHT22;10116;53.112;7.356;2022-12-18T07:09:43;22.80;1.00
19908;DHT22;10116;53.112;7.356;2022-12-18T07:12:09;22.80;1.00
19908;DHT22;10116;53.112;7.356;2022-12-18T07:14:34;22.80;1.00
19908;DHT22;10116;53.112;7.356;2022-12-18T07:17:00;22.80;1.00
19908;DHT22;10116;53.112;7.356;2022-12-18T07:19:25;22.80;1.00
19908;DHT22;10116;53.112;7.356;2022-12-18T07:21:51;22.80;1.00
19908;DHT22;10116;53.112;7.356;2022-12-18T07:24:17;22.80;1.00
19908;DHT22;10116;53.112;7.356;2022-12-18T07:26:45;22.80;1.00
19908;DHT22;10116;53.112;7.356;2022-12-18T07:29:11;22.70;1.00
19908;DHT22;10116;53.112;7.356;2022-12-18T07:31:37;22.80;1.00
19908;DHT22;10116;53.112;7.356;2022-12-18T07:34:02;22.80;1.00
19908;DHT22;10116;53.112;7.356;2022-12-18T07:36:28;22.70;1.00
19908;DHT22;10116;53.112;7.356;2022-12-18T07:38:53;22.70;1.00
19908;DHT22;10116;53.112;7.356;2022-12-18T07:41:19;22.70;1.00
19908;DHT22;10116;53.112;7.356;2022-12-18T07:43:45;22.70;1.00
19908;DHT22;10116;53.112;7.356;2022-12-18T07:46:12;22.70;1.00
19908;DHT22;10116;53.112;7.356;2022-12-18T07:48:42;22.70;1.00
19908;DHT22;10116;53.112;7.356;2022-12-18T07:51:08;22.70;1.00
19908;DHT22;10116;53.112;7.356;2022-12-18T07:53:35;22.80;1.00
19908;DHT22;10116;53.112;7.356;2022-12-18T07:56:07;22.80;1.00
19908;DHT22;10116;53.112;7.356;2022-12-18T07:58:33;22.80;1.00
19908;DHT22;10116;53.112;7.356;2022-12-18T08:01:07;22.80;1.00
19908;DHT22;10116;53.112;7.356;2022-12-18T08:03:33;22.90;1.00
19908;DHT22;10116;53.112;7.356;2022-12-18T08:06:04;22.90;1.00
19908;DHT22;10116;53.112;7.356;2022-12-18T08:08:30;22.90;1.00
19908;DHT22;10116;53.112;7.356;2022-12-18T08:10:57;22.90;1.00
19908;DHT22;10116;53.112;7.356;2022-12-18T08:13:22;22.90;1.00
19908;DHT22;10116;53.112;7.356;2022-12-18T08:16:00;22.90;1.00
19908;DHT22;10116;53.112;7.356;2022-12-18T08:18:26;23.00;1.00
19908;DHT22;10116;53.112;7.356;2022-12-18T08:20:52;22.90;1.00
19908;DHT22;10116;53.112;7.356;2022-12-18T08:23:17;22.90;1.00
19908;DHT22;10116;53.112;7.356;2022-12-18T08:25:43;22.90;1.00
19908;DHT22;10116;53.112;7.356;2022-12-18T08:28:09;22.90;1.00
19908;DHT22;10116;53.112;7.356;2022-12-18T08:30:35;22.90;1.00
19908;DHT22;10116;53.112;7.356;2022-12-18T08:33:01;22.90;1.00
19908;DHT22;10116;53.112;7.356;2022-12-18T08:35:26;22.90;1.00
19908;DHT22;10116;53.112;7.356;2022-12-18T08:37:52;22.80;1.00
19908;DHT22;10116;53.112;7.356;2022-12-18T08:40:18;22.80;1.00
19908;DHT22;10116;53.112;7.356;2022-12-18T08:42:43;22.80;1.00
19908;DHT22;10116;53.112;7.356;2022-12-18T08:45:28;22.80;1.00
19908;DHT22;10116;53.112;7.356;2022-12-18T08:47:54;22.70;1.00
19908;DHT22;10116;53.112;7.356;2022-12-18T08:50:20;22.70;1.00
19908;DHT22;10116;53.112;7.356;2022-12-18T08:52:45;22.70;1.00
19908;DHT22;10116;53.112;7.356;2022-12-18T08:55:11;22.70;1.00
19908;DHT22;10116;53.112;7.356;2022-12-18T08:57:36;22.60;1.00
19908;DHT22;10116;53.112;7.356;2022-12-18T09:00:03;22.60;1.00
19908;DHT22;10116;53.112;7.356;2022-12-18T09:02:29;22.60;1.00
19908;DHT22;10116;53.112;7.356;2022-12-18T09:04:55;22.60;1.00
19908;DHT22;10116;53.112;7.356;2022-12-18T09:07:20;22.70;1.00
19908;DHT22;10116;53.112;7.356;2022-12-18T09:09:46;22.70;1.00
19908;DHT22;10116;53.112;7.356;2022-12-18T09:12:11;22.70;1.00
19908;DHT22;10116;53.112;7.356;2022-12-18T09:14:37;22.70;1.00
19908;DHT22;10116;53.112;7.356;2022-12-18T09:17:03;22.70;1.00
19908;DHT22;10116;53.112;7.356;2022-12-18T09:19:28;22.70;1.00
19908;DHT22;10116;53.112;7.356;2022-12-18T09:21:54;22.80;1.00
19908;DHT22;10116;53.112;7.356;2022-12-18T09:24:22;22.80;1.00
19908;DHT22;10116;53.112;7.356;2022-12-18T09:26:48;22.80;1.00
19908;DHT22;10116;53.112;7.356;2022-12-18T09:29:15;22.80;1.00
19908;DHT22;10116;53.112;7.356;2022-12-18T09:31:40;22.80;1.00
19908;DHT22;10116;53.112;7.356;2022-12-18T09:34:06;22.80;1.00
19908;DHT22;10116;53.112;7.356;2022-12-18T09:36:32;22.80;1.00
19908;DHT22;10116;53.112;7.356;2022-12-18T09:38:58;22.70;1.00
19908;DHT22;10116;53.112;7.356;2022-12-18T09:44:15;22.70;1.00
19908;DHT22;10116;53.112;7.356;2022-12-18T09:46:59;22.70;1.00
19908;DHT22;10116;53.112;7.356;2022-12-18T09:49:30;22.70;1.00
19908;DHT22;10116;53.112;7.356;2022-12-18T09:52:02;22.60;1.00
19908;DHT22;10116;53.112;7.356;2022-12-18T09:54:42;22.50;1.00
19908;DHT22;10116;53.112;7.356;2022-12-18T09:57:35;22.50;1.00
19908;DHT22;10116;53.112;7.356;2022-12-18T10:00:16;22.50;1.00
19908;DHT22;10116;53.112;7.356;2022-12-18T10:02:43;22.40;1.00
19908;DHT22;10116;53.112;7.356;2022-12-18T10:05:16;22.40;1.00
19908;DHT22;10116;53.112;7.356;2022-12-18T10:08:06;22.40;1.00
19908;DHT22;10116;53.112;7.356;2022-12-18T10:10:51;22.40;1.00
19908;DHT22;10116;53.112;7.356;2022-12-18T10:16:12;22.30;1.00
19908;DHT22;10116;53.112;7.356;2022-12-18T10:21:23;22.40;1.00
19908;DHT22;10116;53.112;7.356;2022-12-18T10:26:28;22.40;1.00
19908;DHT22;10116;53.112;7.356;2022-12-18T10:28:57;22.40;1.00
19908;DHT22;10116;53.112;7.356;2022-12-18T10:31:24;22.40;1.00
19908;DHT22;10116;53.112;7.356;2022-12-18T10:33:50;22.40;1.00
19908;DHT22;10116;53.112;7.356;2022-12-18T10:36:16;22.40;1.00
19908;DHT22;10116;53.112;7.356;2022-12-18T10:38:42;22.40;1.00
19908;DHT22;10116;53.112;7.356;2022-12-18T10:43:42;22.40;1.00
19908;DHT22;10116;53.112;7.356;2022-12-18T10:51:02;22.30;1.00
19908;DHT22;10116;53.112;7.356;2022-12-18T10:53:31;22.30;1.00
19908;DHT22;10116;53.112;7.356;2022-12-18T10:56:03;22.30;1.00
19908;DHT22;10116;53.112;7.356;2022-12-18T10:58:31;22.30;1.00
19908;DHT22;10116;53.112;7.356;2022-12-18T11:01:17;22.30;1.00
19908;DHT22;10116;53.112;7.356;2022-12-18T11:03:46;22.30;1.00
19908;DHT22;10116;53.112;7.356;2022-12-18T11:06:15;22.30;1.00
19908;DHT22;10116;53.112;7.356;2022-12-18T11:08:43;22.30;1.00
19908;DHT22;10116;53.112;7.356;2022-12-18T11:11:35;22.20;1.00
19908;DHT22;10116;53.112;7.356;2022-12-18T11:14:05;22.10;1.00
19908;DHT22;10116;53.112;7.356;2022-12-18T11:16:42;22.20;1.00
19908;DHT22;10116;53.112;7.356;2022-12-18T11:19:40;22.10;1.00
19908;DHT22;10116;53.112;7.356;2022-12-18T11:22:31;22.10;1.00
19908;DHT22;10116;53.112;7.356;2022-12-18T11:25:04;22.10;1.00
19908;DHT22;10116;53.112;7.356;2022-12-18T11:27:31;22.00;1.00
19908;DHT22;10116;53.112;7.356;2022-12-18T11:32:49;22.00;1.00
19908;DHT22;10116;53.112;7.356;2022-12-18T11:35:30;22.00;1.00
19908;DHT22;10116;53.112;7.356;2022-12-18T11:38:04;22.00;1.00
19908;DHT22;10116;53.112;7.356;2022-12-18T11:40:40;22.00;1.00
19908;DHT22;10116;53.112;7.356;2022-12-18T11:43:14;22.00;1.00
19908;DHT22;10116;53.112;7.356;2022-12-18T11:45:47;22.00;1.00
19908;DHT22;10116;53.112;7.356;2022-12-18T11:48:18;22.00;1.00
19908;DHT22;10116;53.112;7.356;2022-12-18T11:50:57;22.00;1.00
19908;DHT22;10116;53.112;7.356;2022-12-18T11:53:27;22.00;1.00
19908;DHT22;10116;53.112;7.356;2022-12-18T12:01:15;22.00;1.00
19908;DHT22;10116;53.112;7.356;2022-12-18T12:04:32;22.00;1.00
19908;DHT22;10116;53.112;7.356;2022-12-18T12:12:33;21.90;1.00
19908;DHT22;10116;53.112;7.356;2022-12-18T12:26:34;22.00;1.00
19908;DHT22;10116;53.112;7.356;2022-12-18T12:40:01;21.90;1.00
19908;DHT22;10116;53.112;7.356;2022-12-18T12:42:38;21.90;1.00
19908;DHT22;10116;53.112;7.356;2022-12-18T12:45:30;22.00;1.00
19908;DHT22;10116;53.112;7.356;2022-12-18T12:47:57;22.00;1.00
19908;DHT22;10116;53.112;7.356;2022-12-18T12:50:25;22.00;1.00
19908;DHT22;10116;53.112;7.356;2022-12-18T12:52:54;22.10;1.00
19908;DHT22;10116;53.112;7.356;2022-12-18T12:55:25;22.10;1.00
19908;DHT22;10116;53.112;7.356;2022-12-18T12:58:17;22.10;1.00
19908;DHT22;10116;53.112;7.356;2022-12-18T13:03:36;22.10;1.00
19908;DHT22;10116;53.112;7.356;2022-12-18T13:09:03;22.10;1.00
19908;DHT22;10116;53.112;7.356;2022-12-18T13:11:36;22.10;1.00
19908;DHT22;10116;53.112;7.356;2022-12-18T13:17:26;22.10;1.00
19908;DHT22;10116;53.112;7.356;2022-12-18T13:20:10;22.00;1.00
19908;DHT22;10116;53.112;7.356;2022-12-18T13:22:42;22.00;1.00
19908;DHT22;10116;53.112;7.356;2022-12-18T13:35:52;21.90;1.00
19908;DHT22;10116;53.112;7.356;2022-12-18T13:38:39;21.90;1.00
19908;DHT22;10116;53.112;7.356;2022-12-18T13:43:48;21.90;1.00
19908;DHT22;10116;53.112;7.356;2022-12-18T13:51:44;21.80;1.00
19908;DHT22;10116;53.112;7.356;2022-12-18T13:54:28;21.80;1.00
19908;DHT22;10116;53.112;7.356;2022-12-18T13:56:55;21.80;1.00
19908;DHT22;10116;53.112;7.356;2022-12-18T13:59:25;21.80;1.00
19908;DHT22;10116;53.112;7.356;2022-12-18T14:01:59;21.70;1.00
19908;DHT22;10116;53.112;7.356;2022-12-18T14:04:29;21.70;1.00
19908;DHT22;10116;53.112;7.356;2022-12-18T14:07:02;21.70;1.00
19908;DHT22;10116;53.112;7.356;2022-12-18T14:09:39;21.70;1.00
19908;DHT22;10116;53.112;7.356;2022-12-18T14:12:06;21.70;1.00
19908;DHT22;10116;53.112;7.356;2022-12-18T14:14:52;21.70;1.00
19908;DHT22;10116;53.112;7.356;2022-12-18T14:17:18;21.70;1.00
19908;DHT22;10116;53.112;7.356;2022-12-18T14:19:46;21.70;1.00
19908;DHT22;10116;53.112;7.356;2022-12-18T14:22:25;21.80;1.00
19908;DHT22;10116;53.112;7.356;2022-12-18T14:28:04;21.90;1.00
19908;DHT22;10116;53.112;7.356;2022-12-18T14:30:34;21.90;1.00
19908;DHT22;10116;53.112;7.356;2022-12-18T14:33:14;21.90;1.00
19908;DHT22;10116;53.112;7.356;2022-12-18T14:35:42;21.90;1.00
19908;DHT22;10116;53.112;7.356;2022-12-18T14:43:33;21.90;1.00
19908;DHT22;10116;53.112;7.356;2022-12-18T14:46:00;21.90;1.00
19908;DHT22;10116;53.112;7.356;2022-12-18T14:48:41;21.90;1.00
19908;DHT22;10116;53.112;7.356;2022-12-18T14:51:16;21.90;1.00
19908;DHT22;10116;53.112;7.356;2022-12-18T14:53:45;21.90;1.00
19908;DHT22;10116;53.112;7.356;2022-12-18T14:56:25;21.90;1.00
19908;DHT22;10116;53.112;7.356;2022-12-18T14:58:57;21.90;1.00
19908;DHT22;10116;53.112;7.356;2022-12-18T15:01:48;21.80;1.00
19908;DHT22;10116;53.112;7.356;2022-12-18T15:04:37;21.80;1.00
19908;DHT22;10116;53.112;7.356;2022-12-18T15:07:18;21.80;1.00
19908;DHT22;10116;53.112;7.356;2022-12-18T15:10:15;21.80;1.00
19908;DHT22;10116;53.112;7.356;2022-12-18T15:12:50;21.80;1.00
19908;DHT22;10116;53.112;7.356;2022-12-18T15:23:28;21.70;1.00
19908;DHT22;10116;53.112;7.356;2022-12-18T15:25:58;21.70;1.00
19908;DHT22;10116;53.112;7.356;2022-12-18T15:28:29;21.70;1.00
19908;DHT22;10116;53.112;7.356;2022-12-18T15:36:23;21.80;1.00
19908;DHT22;10116;53.112;7.356;2022-12-18T15:38:50;21.80;1.00
19908;DHT22;10116;53.112;7.356;2022-12-18T15:41:17;21.80;1.00
19908;DHT22;10116;53.112;7.356;2022-12-18T15:43:44;21.80;1.00
19908;DHT22;10116;53.112;7.356;2022-12-18T15:46:15;21.90;1.00
19908;DHT22;10116;53.112;7.356;2022-12-18T15:48:43;21.90;1.00
19908;DHT22;10116;53.112;7.356;2022-12-18T15:53:42;21.90;1.00
19908;DHT22;10116;53.112;7.356;2022-12-18T15:56:12;21.90;1.00
19908;DHT22;10116;53.112;7.356;2022-12-18T15:58:57;21.90;1.00
19908;DHT22;10116;53.112;7.356;2022-12-18T16:01:25;22.00;1.00
19908;DHT22;10116;53.112;7.356;2022-12-18T16:03:51;21.90;1.00
19908;DHT22;10116;53.112;7.356;2022-12-18T16:06:16;21.90;1.00
19908;DHT22;10116;53.112;7.356;2022-12-18T16:08:42;21.90;1.00
19908;DHT22;10116;53.112;7.356;2022-12-18T16:11:26;21.90;1.00
19908;DHT22;10116;53.112;7.356;2022-12-18T16:16:45;21.90;1.00
19908;DHT22;10116;53.112;7.356;2022-12-18T16:19:10;21.90;1.00
19908;DHT22;10116;53.112;7.356;2022-12-18T16:21:36;21.90;1.00
19908;DHT22;10116;53.112;7.356;2022-12-18T16:24:02;21.90;1.00
19908;DHT22;10116;53.112;7.356;2022-12-18T16:26:27;22.00;1.00
19908;DHT22;10116;53.112;7.356;2022-12-18T16:28:53;22.00;1.00
19908;DHT22;10116;53.112;7.356;2022-12-18T16:31:19;22.00;1.00
19908;DHT22;10116;53.112;7.356;2022-12-18T16:33:46;22.00;1.00
19908;DHT22;10116;53.112;7.356;2022-12-18T16:36:11;22.00;1.00
19908;DHT22;10116;53.112;7.356;2022-12-18T16:38:37;22.00;1.00
19908;DHT22;10116;53.112;7.356;2022-12-18T16:41:17;22.00;1.00
19908;DHT22;10116;53.112;7.356;2022-12-18T16:44:02;22.00;1.00
19908;DHT22;10116;53.112;7.356;2022-12-18T16:46:28;22.00;1.00
19908;DHT22;10116;53.112;7.356;2022-12-18T16:48:55;22.00;1.00
19908;DHT22;10116;53.112;7.356;2022-12-18T16:51:21;22.00;1.00
19908;DHT22;10116;53.112;7.356;2022-12-18T16:53:47;22.00;1.00
19908;DHT22;10116;53.112;7.356;2022-12-18T16:56:13;22.00;1.00
19908;DHT22;10116;53.112;7.356;2022-12-18T16:58:38;21.90;1.00
19908;DHT22;10116;53.112;7.356;2022-12-18T17:01:09;21.90;1.00
19908;DHT22;10116;53.112;7.356;2022-12-18T17:03:34;21.90;1.00
19908;DHT22;10116;53.112;7.356;2022-12-18T17:06:04;21.90;1.00
19908;DHT22;10116;53.112;7.356;2022-12-18T17:08:30;21.90;1.00
19908;DHT22;10116;53.112;7.356;2022-12-18T17:10:55;21.90;1.00
19908;DHT22;10116;53.112;7.356;2022-12-18T17:13:26;21.90;1.00
19908;DHT22;10116;53.112;7.356;2022-12-18T17:15:52;21.90;1.00
19908;DHT22;10116;53.112;7.356;2022-12-18T17:18:18;21.90;1.00
19908;DHT22;10116;53.112;7.356;2022-12-18T17:20:43;21.90;1.00
19908;DHT22;10116;53.112;7.356;2022-12-18T17:23:09;21.90;1.00
19908;DHT22;10116;53.112;7.356;2022-12-18T17:25:38;21.90;1.00
19908;DHT22;10116;53.112;7.356;2022-12-18T17:28:04;21.90;1.00
19908;DHT22;10116;53.112;7.356;2022-12-18T17:30:30;21.90;1.00
19908;DHT22;10116;53.112;7.356;2022-12-18T17:32:55;22.00;1.00
19908;DHT22;10116;53.112;7.356;2022-12-18T17:35:21;22.10;1.00
19908;DHT22;10116;53.112;7.356;2022-12-18T17:37:46;22.10;1.00
19908;DHT22;10116;53.112;7.356;2022-12-18T17:40:13;22.20;1.00
19908;DHT22;10116;53.112;7.356;2022-12-18T17:42:38;22.20;1.00
19908;DHT22;10116;53.112;7.356;2022-12-18T17:45:04;22.20;1.00
19908;DHT22;10116;53.112;7.356;2022-12-18T17:47:34;22.20;1.00
19908;DHT22;10116;53.112;7.356;2022-12-18T17:50:00;22.20;1.00
19908;DHT22;10116;53.112;7.356;2022-12-18T17:52:25;22.20;1.00
19908;DHT22;10116;53.112;7.356;2022-12-18T17:54:51;22.20;1.00
19908;DHT22;10116;53.112;7.356;2022-12-18T17:57:17;22.20;1.00
19908;DHT22;10116;53.112;7.356;2022-12-18T17:59:42;22.20;1.00
19908;DHT22;10116;53.112;7.356;2022-12-18T18:02:10;22.10;1.00
19908;DHT22;10116;53.112;7.356;2022-12-18T18:04:36;22.20;1.00
19908;DHT22;10116;53.112;7.356;2022-12-18T18:07:01;22.20;1.00
19908;DHT22;10116;53.112;7.356;2022-12-18T18:09:27;22.20;1.00